sensor_id;sensor_type;location;lat;lon;timestamp;pressure;altitude;pressure_sealevel;temperature;humidity
58771;BME280;44539;42.962;1.596;2023-03-16T07:09:22;96637.97;;;2.63;100.00
58771;BME280;44539;42.962;1.596;2023-03-16T07:11:48;96644.31;;;2.90;100.00
58771;BME280;44539;42.962;1.596;2023-03-16T07:14:13;96652.03;;;3.01;100.00
58771;BME280;44539;42.962;1.596;2023-03-16T07:16:39;96644.25;;;3.19;100.00
58771;BME280;44539;42.962;1.596;2023-03-16T07:19:04;96641.22;;;3.23;100.00
58771;BME280;44539;42.962;1.596;2023-03-16T07:21:30;96645.34;;;3.26;100.00
58771;BME280;44539;42.962;1.596;2023-03-16T07:24:03;96644.56;;;3.06;100.00
58771;BME280;44539;42.962;1.596;2023-03-16T07:26:29;96655.84;;;3.26;100.00
58771;BME280;44539;42.962;1.596;2023-03-16T07:28:56;96661.34;;;3.42;100.00
58771;BME280;44539;42.962;1.596;2023-03-16T07:31:21;96656.75;;;3.54;100.00
58771;BME280;44539;42.962;1.596;2023-03-16T07:33:46;96653.00;;;3.57;100.00
58771;BME280;44539;42.962;1.596;2023-03-16T07:36:12;96645.13;;;3.57;100.00
58771;BME280;44539;42.962;1.596;2023-03-16T07:38:37;96639.09;;;3.74;100.00
58771;BME280;44539;42.962;1.596;2023-03-16T07:41:04;96640.03;;;3.83;100.00
58771;BME280;44539;42.962;1.596;2023-03-16T07:43:29;96636.47;;;4.02;100.00
58771;BME280;44539;42.962;1.596;2023-03-16T07:45:55;96641.38;;;4.15;100.00
58771;BME280;44539;42.962;1.596;2023-03-16T07:48:20;96639.75;;;4.32;100.00
58771;BME280;44539;42.962;1.596;2023-03-16T07:50:47;96636.44;;;4.29;100.00
58771;BME280;44539;42.962;1.596;2023-03-16T07:53:12;96632.78;;;4.40;100.00
58771;BME280;44539;42.962;1.596;2023-03-16T07:55:40;96634.94;;;4.63;100.00
58771;BME280;44539;42.962;1.596;2023-03-16T07:58:05;96634.84;;;4.90;100.00
58771;BME280;44539;42.962;1.596;2023-03-16T08:00:32;96634.06;;;5.16;100.00
58771;BME280;44539;42.962;1.596;2023-03-16T08:02:57;96631.25;;;5.36;100.00
58771;BME280;44539;42.962;1.596;2023-03-16T08:05:24;96635.56;;;5.45;100.00
58771;BME280;44539;42.962;1.596;2023-03-16T08:07:49;96625.75;;;5.55;100.00
58771;BME280;44539;42.962;1.596;2023-03-16T08:10:16;96624.00;;;5.64;100.00
58771;BME280;44539;42.962;1.596;2023-03-16T08:12:42;96625.81;;;5.98;100.00
58771;BME280;44539;42.962;1.596;2023-03-16T08:15:08;96621.25;;;6.24;100.00
58771;BME280;44539;42.962;1.596;2023-03-16T08:17:34;96622.66;;;6.53;100.00
58771;BME280;44539;42.962;1.596;2023-03-16T08:20:01;96613.28;;;6.75;100.00
58771;BME280;44539;42.962;1.596;2023-03-16T08:22:30;96612.28;;;7.01;100.00
58771;BME280;44539;42.962;1.596;2023-03-16T08:24:56;96601.34;;;7.20;100.00
58771;BME280;44539;42.962;1.596;2023-03-16T08:27:22;96603.78;;;7.38;100.00
58771;BME280;44539;42.962;1.596;2023-03-16T08:29:51;96608.38;;;7.61;100.00
58771;BME280;44539;42.962;1.596;2023-03-16T08:32:16;96601.72;;;7.81;100.00
58771;BME280;44539;42.962;1.596;2023-03-16T08:34:42;96596.00;;;8.01;100.00
58771;BME280;44539;42.962;1.596;2023-03-16T08:37:07;96599.19;;;8.19;100.00
58771;BME280;44539;42.962;1.596;2023-03-16T08:39:33;96596.47;;;8.35;97.96
58771;BME280;44539;42.962;1.596;2023-03-16T08:41:59;96592.78;;;8.45;100.00
58771;BME280;44539;42.962;1.596;2023-03-16T08:44:25;96592.81;;;8.68;90.66
58771;BME280;44539;42.962;1.596;2023-03-16T08:46:51;96584.72;;;8.84;93.24
58771;BME280;44539;42.962;1.596;2023-03-16T08:49:17;96581.81;;;8.94;96.55
58771;BME280;44539;42.962;1.596;2023-03-16T08:51:45;96591.91;;;8.98;92.26
58771;BME280;44539;42.962;1.596;2023-03-16T08:54:10;96587.47;;;9.14;90.12
58771;BME280;44539;42.962;1.596;2023-03-16T08:56:36;96576.25;;;9.27;92.45
58771;BME280;44539;42.962;1.596;2023-03-16T08:59:01;96575.44;;;9.41;91.00
58771;BME280;44539;42.962;1.596;2023-03-16T09:01:27;96575.44;;;9.56;81.90
58771;BME280;44539;42.962;1.596;2023-03-16T09:03:53;96572.97;;;9.69;84.74
58771;BME280;44539;42.962;1.596;2023-03-16T09:06:19;96568.09;;;9.88;84.35
58771;BME280;44539;42.962;1.596;2023-03-16T09:08:44;96563.31;;;9.98;84.56
58771;BME280;44539;42.962;1.596;2023-03-16T09:11:14;96563.75;;;10.16;82.63
58771;BME280;44539;42.962;1.596;2023-03-16T09:13:40;96570.25;;;10.50;82.15
58771;BME280;44539;42.962;1.596;2023-03-16T09:16:07;96558.03;;;10.77;74.02
58771;BME280;44539;42.962;1.596;2023-03-16T09:18:33;96559.94;;;10.83;83.03
58771;BME280;44539;42.962;1.596;2023-03-16T09:21:00;96559.19;;;10.90;83.66
58771;BME280;44539;42.962;1.596;2023-03-16T09:23:27;96545.94;;;10.96;84.74
58771;BME280;44539;42.962;1.596;2023-03-16T09:25:56;96542.47;;;10.96;84.34
58771;BME280;44539;42.962;1.596;2023-03-16T09:28:23;96540.75;;;11.10;82.80
58771;BME280;44539;42.962;1.596;2023-03-16T09:30:49;96532.41;;;11.19;80.72
58771;BME280;44539;42.962;1.596;2023-03-16T09:33:14;96526.56;;;11.31;81.31
58771;BME280;44539;42.962;1.596;2023-03-16T09:35:40;96525.06;;;11.56;77.46
58771;BME280;44539;42.962;1.596;2023-03-16T09:38:07;96528.41;;;11.65;81.09
58771;BME280;44539;42.962;1.596;2023-03-16T09:40:33;96533.63;;;11.87;80.01
58771;BME280;44539;42.962;1.596;2023-03-16T09:48:10;96517.16;;;12.18;80.35
58771;BME280;44539;42.962;1.596;2023-03-16T09:50:40;96509.81;;;12.26;81.79
58771;BME280;44539;42.962;1.596;2023-03-16T09:53:24;96513.31;;;12.40;81.21
58771;BME280;44539;42.962;1.596;2023-03-16T09:55:54;96504.97;;;12.63;77.02
58771;BME280;44539;42.962;1.596;2023-03-16T09:58:22;96501.66;;;12.81;77.90
58771;BME280;44539;42.962;1.596;2023-03-16T10:06:45;96487.88;;;13.24;76.62
58771;BME280;44539;42.962;1.596;2023-03-16T10:11:53;96488.03;;;13.56;75.45
58771;BME280;44539;42.962;1.596;2023-03-16T10:14:32;96483.88;;;13.74;76.05
58771;BME280;44539;42.962;1.596;2023-03-16T10:17:12;96479.13;;;13.76;72.55
58771;BME280;44539;42.962;1.596;2023-03-16T10:19:48;96475.19;;;13.92;74.55
58771;BME280;44539;42.962;1.596;2023-03-16T10:22:21;96471.41;;;14.06;71.65
58771;BME280;44539;42.962;1.596;2023-03-16T10:27:37;96476.44;;;14.27;68.60
58771;BME280;44539;42.962;1.596;2023-03-16T10:30:32;96466.50;;;14.35;71.01
58771;BME280;44539;42.962;1.596;2023-03-16T10:33:04;96457.13;;;14.50;70.87
58771;BME280;44539;42.962;1.596;2023-03-16T10:35:43;96461.44;;;14.58;70.59
58771;BME280;44539;42.962;1.596;2023-03-16T10:43:54;96465.63;;;14.98;70.80
58771;BME280;44539;42.962;1.596;2023-03-16T10:46:20;96458.81;;;15.02;69.21
58771;BME280;44539;42.962;1.596;2023-03-16T10:48:57;96460.59;;;15.08;68.26
58771;BME280;44539;42.962;1.596;2023-03-16T10:51:35;96466.66;;;15.22;67.58
58771;BME280;44539;42.962;1.596;2023-03-16T10:54:37;96466.56;;;15.28;67.26
58771;BME280;44539;42.962;1.596;2023-03-16T10:57:34;96467.66;;;15.21;66.41
58771;BME280;44539;42.962;1.596;2023-03-16T11:00:05;96473.84;;;15.40;66.22
58771;BME280;44539;42.962;1.596;2023-03-16T11:02:44;96483.69;;;15.46;65.54
58771;BME280;44539;42.962;1.596;2023-03-16T11:07:49;96473.72;;;15.53;64.83
58771;BME280;44539;42.962;1.596;2023-03-16T11:10:31;96473.41;;;15.61;64.19
58771;BME280;44539;42.962;1.596;2023-03-16T11:13:18;96462.13;;;15.78;64.83
58771;BME280;44539;42.962;1.596;2023-03-16T11:18:27;96473.66;;;15.97;63.12
58771;BME280;44539;42.962;1.596;2023-03-16T11:20:55;96473.34;;;16.05;62.07
58771;BME280;44539;42.962;1.596;2023-03-16T11:23:29;96470.41;;;16.06;62.72
58771;BME280;44539;42.962;1.596;2023-03-16T11:25:58;96471.59;;;16.10;62.02
58771;BME280;44539;42.962;1.596;2023-03-16T11:28:37;96474.69;;;16.26;61.15
58771;BME280;44539;42.962;1.596;2023-03-16T11:31:18;96475.19;;;16.35;61.23
58771;BME280;44539;42.962;1.596;2023-03-16T11:33:46;96466.31;;;16.34;60.90
58771;BME280;44539;42.962;1.596;2023-03-16T11:36:52;96481.03;;;16.43;60.98
58771;BME280;44539;42.962;1.596;2023-03-16T11:39:30;96477.38;;;16.26;59.94
58771;BME280;44539;42.962;1.596;2023-03-16T11:42:14;96477.94;;;16.58;59.93
58771;BME280;44539;42.962;1.596;2023-03-16T11:45:02;96475.41;;;16.75;58.92
58771;BME280;44539;42.962;1.596;2023-03-16T11:50:47;96463.19;;;16.91;58.38
58771;BME280;44539;42.962;1.596;2023-03-16T11:55:58;96469.16;;;17.05;57.54
58771;BME280;44539;42.962;1.596;2023-03-16T11:58:50;96472.31;;;17.25;56.83
58771;BME280;44539;42.962;1.596;2023-03-16T12:01:48;96466.59;;;17.33;56.24
58771;BME280;44539;42.962;1.596;2023-03-16T12:04:30;96473.94;;;17.50;55.35
58771;BME280;44539;42.962;1.596;2023-03-16T12:07:19;96471.22;;;17.62;55.48
58771;BME280;44539;42.962;1.596;2023-03-16T12:15:44;96466.09;;;17.48;55.07
58771;BME280;44539;42.962;1.596;2023-03-16T12:21:02;96470.06;;;17.34;55.23
58771;BME280;44539;42.962;1.596;2023-03-16T12:23:40;96468.44;;;17.45;54.57
58771;BME280;44539;42.962;1.596;2023-03-16T12:26:07;96466.22;;;17.42;55.13
58771;BME280;44539;42.962;1.596;2023-03-16T12:28:33;96466.41;;;17.64;55.31
58771;BME280;44539;42.962;1.596;2023-03-16T12:31:15;96462.06;;;17.74;54.83
58771;BME280;44539;42.962;1.596;2023-03-16T12:34:00;96454.28;;;17.61;54.53
58771;BME280;44539;42.962;1.596;2023-03-16T12:46:47;96463.28;;;17.55;54.68
58771;BME280;44539;42.962;1.596;2023-03-16T12:48:54;96452.53;;;17.67;54.14
58771;BME280;44539;42.962;1.596;2023-03-16T12:51:32;96456.13;;;17.84;53.66
58771;BME280;44539;42.962;1.596;2023-03-16T12:53:57;96451.06;;;17.88;53.78
58771;BME280;44539;42.962;1.596;2023-03-16T12:56:34;96445.69;;;18.00;52.96
58771;BME280;44539;42.962;1.596;2023-03-16T12:59:03;96453.59;;;18.06;53.17
58771;BME280;44539;42.962;1.596;2023-03-16T13:01:37;96444.09;;;17.87;54.04
58771;BME280;44539;42.962;1.596;2023-03-16T13:04:13;96448.22;;;18.06;53.83
58771;BME280;44539;42.962;1.596;2023-03-16T13:06:49;96442.53;;;18.20;53.41
58771;BME280;44539;42.962;1.596;2023-03-16T13:09:19;96443.97;;;18.22;53.01
58771;BME280;44539;42.962;1.596;2023-03-16T13:11:47;96437.50;;;18.23;53.06
58771;BME280;44539;42.962;1.596;2023-03-16T13:17:22;96425.00;;;18.29;52.90
58771;BME280;44539;42.962;1.596;2023-03-16T13:19:58;96422.88;;;18.02;53.21
58771;BME280;44539;42.962;1.596;2023-03-16T13:41:34;96406.66;;;18.60;52.02
58771;BME280;44539;42.962;1.596;2023-03-16T13:44:00;96411.25;;;18.93;51.28
58771;BME280;44539;42.962;1.596;2023-03-16T13:46:28;96406.53;;;18.83;52.03
58771;BME280;44539;42.962;1.596;2023-03-16T13:48:57;96403.34;;;18.52;51.58
58771;BME280;44539;42.962;1.596;2023-03-16T13:51:25;96400.03;;;18.16;52.26
58771;BME280;44539;42.962;1.596;2023-03-16T13:53:50;96408.06;;;18.62;51.33
58771;BME280;44539;42.962;1.596;2023-03-16T13:56:18;96407.06;;;18.68;51.40
58771;BME280;44539;42.962;1.596;2023-03-16T13:58:47;96405.75;;;18.71;51.29
58771;BME280;44539;42.962;1.596;2023-03-16T14:01:29;96403.66;;;19.07;52.07
58771;BME280;44539;42.962;1.596;2023-03-16T14:03:59;96391.13;;;18.79;51.50
58771;BME280;44539;42.962;1.596;2023-03-16T14:06:29;96397.75;;;19.49;50.83
58771;BME280;44539;42.962;1.596;2023-03-16T14:09:00;96398.09;;;19.74;51.51
58771;BME280;44539;42.962;1.596;2023-03-16T14:11:27;96400.91;;;19.85;49.21
58771;BME280;44539;42.962;1.596;2023-03-16T14:13:55;96393.41;;;19.92;48.20
58771;BME280;44539;42.962;1.596;2023-03-16T14:16:23;96397.81;;;19.54;49.78
58771;BME280;44539;42.962;1.596;2023-03-16T14:19:16;96392.53;;;19.86;48.47
58771;BME280;44539;42.962;1.596;2023-03-16T14:21:44;96393.13;;;19.44;49.71
58771;BME280;44539;42.962;1.596;2023-03-16T14:24:29;96402.03;;;20.48;48.79
58771;BME280;44539;42.962;1.596;2023-03-16T14:26:56;96391.47;;;20.42;47.22
58771;BME280;44539;42.962;1.596;2023-03-16T14:29:26;96391.16;;;20.06;48.11
58771;BME280;44539;42.962;1.596;2023-03-16T14:31:52;96395.72;;;20.59;46.63
58771;BME280;44539;42.962;1.596;2023-03-16T14:36:47;96390.38;;;21.55;45.44
58771;BME280;44539;42.962;1.596;2023-03-16T14:39:15;96385.91;;;21.33;46.30
58771;BME280;44539;42.962;1.596;2023-03-16T14:41:47;96391.16;;;21.03;46.54
58771;BME280;44539;42.962;1.596;2023-03-16T14:44:29;96387.28;;;22.14;45.29
58771;BME280;44539;42.962;1.596;2023-03-16T14:46:56;96373.22;;;21.92;44.36
58771;BME280;44539;42.962;1.596;2023-03-16T14:49:26;96385.19;;;22.57;42.98
58771;BME280;44539;42.962;1.596;2023-03-16T14:51:57;96381.28;;;21.81;43.46
58771;BME280;44539;42.962;1.596;2023-03-16T14:54:25;96393.31;;;22.42;44.08
58771;BME280;44539;42.962;1.596;2023-03-16T14:56:59;96393.00;;;22.18;43.75
58771;BME280;44539;42.962;1.596;2023-03-16T14:59:25;96383.28;;;22.17;43.93
58771;BME280;44539;42.962;1.596;2023-03-16T15:01:51;96383.50;;;21.32;44.51
58771;BME280;44539;42.962;1.596;2023-03-16T15:04:24;96384.88;;;22.13;44.01
58771;BME280;44539;42.962;1.596;2023-03-16T15:06:52;96385.69;;;22.13;43.01
58771;BME280;44539;42.962;1.596;2023-03-16T15:09:38;96387.38;;;22.40;42.71
58771;BME280;44539;42.962;1.596;2023-03-16T15:12:14;96377.91;;;22.68;43.14
58771;BME280;44539;42.962;1.596;2023-03-16T15:14:40;96379.50;;;22.23;43.43
58771;BME280;44539;42.962;1.596;2023-03-16T15:17:25;96372.50;;;22.63;42.73
58771;BME280;44539;42.962;1.596;2023-03-16T15:19:51;96377.34;;;22.30;42.75
58771;BME280;44539;42.962;1.596;2023-03-16T15:22:21;96367.59;;;22.45;43.37
58771;BME280;44539;42.962;1.596;2023-03-16T15:24:48;96370.03;;;22.87;42.65
58771;BME280;44539;42.962;1.596;2023-03-16T15:27:18;96352.97;;;22.97;41.25
58771;BME280;44539;42.962;1.596;2023-03-16T15:29:45;96366.19;;;23.19;41.12
58771;BME280;44539;42.962;1.596;2023-03-16T15:32:12;96372.97;;;23.27;41.45
58771;BME280;44539;42.962;1.596;2023-03-16T15:34:39;96359.59;;;23.51;41.54
58771;BME280;44539;42.962;1.596;2023-03-16T15:37:11;96355.69;;;22.81;42.69
58771;BME280;44539;42.962;1.596;2023-03-16T15:39:37;96364.91;;;22.65;41.75
58771;BME280;44539;42.962;1.596;2023-03-16T15:42:14;96358.69;;;22.75;43.15
58771;BME280;44539;42.962;1.596;2023-03-16T15:44:40;96361.94;;;22.36;43.63
58771;BME280;44539;42.962;1.596;2023-03-16T15:47:05;96360.56;;;22.84;42.90
58771;BME280;44539;42.962;1.596;2023-03-16T15:49:31;96356.25;;;22.73;42.64
58771;BME280;44539;42.962;1.596;2023-03-16T15:51:57;96352.25;;;23.51;41.54
58771;BME280;44539;42.962;1.596;2023-03-16T15:54:22;96364.41;;;23.69;41.03
58771;BME280;44539;42.962;1.596;2023-03-16T15:56:48;96355.66;;;23.17;40.71
58771;BME280;44539;42.962;1.596;2023-03-16T15:59:14;96344.16;;;23.46;41.50
58771;BME280;44539;42.962;1.596;2023-03-16T16:01:45;96348.28;;;23.33;41.72
58771;BME280;44539;42.962;1.596;2023-03-16T16:04:13;96340.09;;;23.54;41.32
58771;BME280;44539;42.962;1.596;2023-03-16T16:06:40;96351.16;;;23.62;41.21
58771;BME280;44539;42.962;1.596;2023-03-16T16:09:06;96337.59;;;23.57;40.85
58771;BME280;44539;42.962;1.596;2023-03-16T16:11:31;96344.88;;;23.77;40.19
58771;BME280;44539;42.962;1.596;2023-03-16T16:13:58;96341.28;;;23.22;41.95
58771;BME280;44539;42.962;1.596;2023-03-16T16:16:26;96341.25;;;23.32;42.13
58771;BME280;44539;42.962;1.596;2023-03-16T16:18:53;96342.88;;;24.33;40.11
58771;BME280;44539;42.962;1.596;2023-03-16T16:21:21;96342.25;;;24.07;39.79
58771;BME280;44539;42.962;1.596;2023-03-16T16:23:47;96342.19;;;23.67;40.04
58771;BME280;44539;42.962;1.596;2023-03-16T16:26:36;96354.59;;;23.83;39.95
58771;BME280;44539;42.962;1.596;2023-03-16T16:29:13;96347.03;;;23.70;40.59
58771;BME280;44539;42.962;1.596;2023-03-16T16:31:40;96352.78;;;23.58;41.38
58771;BME280;44539;42.962;1.596;2023-03-16T16:34:12;96360.03;;;24.23;39.65
58771;BME280;44539;42.962;1.596;2023-03-16T16:36:37;96346.81;;;23.67;40.62
58771;BME280;44539;42.962;1.596;2023-03-16T16:39:03;96343.81;;;22.52;42.49
58771;BME280;44539;42.962;1.596;2023-03-16T16:41:31;96347.06;;;22.33;43.37
58771;BME280;44539;42.962;1.596;2023-03-16T16:43:57;96348.78;;;21.56;44.28
58771;BME280;44539;42.962;1.596;2023-03-16T16:46:26;96357.03;;;21.34;45.44
58771;BME280;44539;42.962;1.596;2023-03-16T16:49:14;96348.06;;;20.11;47.82
58771;BME280;44539;42.962;1.596;2023-03-16T16:51:40;96360.72;;;19.61;50.30
58771;BME280;44539;42.962;1.596;2023-03-16T16:54:27;96362.03;;;19.36;51.32
58771;BME280;44539;42.962;1.596;2023-03-16T16:56:54;96361.84;;;18.65;52.51
58771;BME280;44539;42.962;1.596;2023-03-16T16:59:32;96366.06;;;17.53;55.69
58771;BME280;44539;42.962;1.596;2023-03-16T17:01:59;96367.31;;;18.53;53.20
58771;BME280;44539;42.962;1.596;2023-03-16T17:04:28;96371.72;;;18.43;53.56
58771;BME280;44539;42.962;1.596;2023-03-16T17:06:56;96377.91;;;17.69;55.52
58771;BME280;44539;42.962;1.596;2023-03-16T17:09:24;96376.94;;;17.46;56.55
58771;BME280;44539;42.962;1.596;2023-03-16T17:11:50;96374.56;;;16.98;59.09
58771;BME280;44539;42.962;1.596;2023-03-16T17:14:19;96376.75;;;16.65;60.39
58771;BME280;44539;42.962;1.596;2023-03-16T17:16:46;96388.44;;;16.05;62.44
58771;BME280;44539;42.962;1.596;2023-03-16T17:19:23;96388.22;;;16.07;63.47
58771;BME280;44539;42.962;1.596;2023-03-16T17:21:50;96397.19;;;16.12;63.50
58771;BME280;44539;42.962;1.596;2023-03-16T17:24:16;96391.75;;;15.89;64.66
58771;BME280;44539;42.962;1.596;2023-03-16T17:26:50;96390.31;;;15.56;66.16
58771;BME280;44539;42.962;1.596;2023-03-16T17:29:20;96382.53;;;15.18;67.92
58771;BME280;44539;42.962;1.596;2023-03-16T17:31:47;96389.09;;;14.78;69.92
58771;BME280;44539;42.962;1.596;2023-03-16T17:34:15;96378.75;;;15.07;70.60
58771;BME280;44539;42.962;1.596;2023-03-16T17:36:41;96386.97;;;15.05;69.93
58771;BME280;44539;42.962;1.596;2023-03-16T17:41:52;96386.75;;;14.88;70.86
58771;BME280;44539;42.962;1.596;2023-03-16T17:44:18;96386.28;;;14.73;71.42
58771;BME280;44539;42.962;1.596;2023-03-16T17:46:45;96395.16;;;14.67;72.89
58771;BME280;44539;42.962;1.596;2023-03-16T17:49:13;96392.09;;;14.63;73.23
